Time;durP1;ratioP1;P1;durP2;ratioP2;P2;SDS_P1;SDS_P2;PMS_P1;PMS_P2;Temp;Humidity;BMP_temperature;BMP_pressure;BME280_temperature;BME280_humidity;BME280_pressure;Samples;Min_cycle;Max_cycle;Signal;HPM_P1;HPM_P2
2021/12/08 00:00:18;;;;;;;16.08;7.45;;;;;;;3.57;100.00;99097.59;2610114;36;20102;-70
2021/12/08 00:02:47;;;;;;;14.65;7.65;;;;;;;3.58;100.00;99102.78;2610413;36;20081;-71
2021/12/08 00:05:18;;;;;;;14.18;7.15;;;;;;;3.62;100.00;99087.38;2611126;36;20038;-70
2021/12/08 00:07:47;;;;;;;11.75;7.00;;;;;;;3.61;100.00;99101.66;2610378;36;20081;-71
2021/12/08 00:10:50;;;;;;;14.45;8.43;;;;;;;3.66;100.00;99120.72;2610026;36;20057;-70
2021/12/08 00:13:15;;;;;;;13.70;7.90;;;;;;;3.68;100.00;99108.09;2609558;36;20039;-70
2021/12/08 00:18:29;;;;;;;12.40;7.20;;;;;;;3.78;100.00;99101.00;2610587;36;20660;-70
2021/12/08 00:21:01;;;;;;;15.85;7.95;;;;;;;3.76;100.00;99116.25;2610973;36;20041;-70
2021/12/08 00:23:30;;;;;;;17.98;7.30;;;;;;;3.80;100.00;99116.84;2609813;36;20034;-70
2021/12/08 00:26:03;;;;;;;;;;;;;;;3.86;100.00;99117.13;2610961;36;20051;-70
2021/12/08 00:28:35;;;;;;;10.63;6.90;;;;;;;3.92;100.00;99107.78;2609995;36;20482;-70
2021/12/08 00:31:12;;;;;;;13.98;8.10;;;;;;;3.90;100.00;99095.56;2610460;36;20034;-71
2021/12/08 00:33:44;;;;;;;13.35;9.30;;;;;;;3.90;100.00;99095.56;2610867;36;20400;-70
2021/12/08 00:36:15;;;;;;;14.68;8.43;;;;;;;3.91;100.00;99082.13;2628001;31;20046;-70
2021/12/08 00:38:50;;;;;;;11.02;7.85;;;;;;;3.94;100.00;99076.53;2609422;36;20084;-71
2021/12/08 00:41:25;;;;;;;11.07;8.82;;;;;;;3.97;100.00;99080.72;2610638;36;20042;-70
2021/12/08 00:44:17;;;;;;;13.85;8.50;;;;;;;3.99;100.00;99068.13;2609470;36;20050;-70
2021/12/08 00:46:46;;;;;;;12.15;8.77;;;;;;;3.99;100.00;99073.44;2609742;36;20131;-70
2021/12/08 00:49:17;;;;;;;12.93;9.43;;;;;;;4.00;100.00;99077.78;2610300;36;20122;-70
2021/12/08 00:51:45;;;;;;;14.32;9.30;;;;;;;3.99;100.00;99068.13;2627454;36;20141;-70
2021/12/08 00:54:13;;;;;;;18.70;9.85;;;;;;;4.05;100.00;99064.94;2609247;36;20126;-70
2021/12/08 00:56:44;;;;;;;15.40;10.13;;;;;;;4.03;100.00;99069.53;2609902;36;20056;-69
2021/12/08 00:59:15;;;;;;;17.95;10.20;;;;;;;4.05;100.00;99080.91;2609698;31;20134;-71
2021/12/08 01:01:44;;;;;;;18.70;10.50;;;;;;;4.06;100.00;99084.38;2609138;36;20085;-70
2021/12/08 01:04:15;;;;;;;15.43;10.25;;;;;;;4.00;100.00;99083.94;2609517;31;20034;-70
2021/12/08 01:06:43;;;;;;;17.10;10.20;;;;;;;4.01;100.00;99090.13;2610102;36;20046;-70
2021/12/08 01:09:16;;;;;;;19.98;10.30;;;;;;;4.06;100.00;99073.75;2609598;36;20046;-71
2021/12/08 01:11:50;;;;;;;18.58;10.35;;;;;;;3.99;100.00;99068.97;2610215;31;20049;-71
2021/12/08 01:14:19;;;;;;;17.95;10.50;;;;;;;4.10;100.00;99085.81;2609134;36;20147;-70
2021/12/08 01:16:47;;;;;;;16.15;11.38;;;;;;;4.14;100.00;99087.22;2604823;36;20170;-71
2021/12/08 01:19:16;;;;;;;23.23;12.98;;;;;;;4.19;100.00;99100.94;2600442;31;20157;-70
2021/12/08 01:21:44;;;;;;;17.50;12.38;;;;;;;4.17;100.00;99103.75;2603221;36;20034;-71
2021/12/08 01:24:12;;;;;;;16.67;12.05;;;;;;;4.13;100.00;99112.97;2602415;36;20065;-71
2021/12/08 01:26:40;;;;;;;18.23;11.00;;;;;;;4.18;100.00;99100.09;2608301;36;20034;-70
2021/12/08 01:29:11;;;;;;;20.35;13.52;;;;;;;4.17;100.00;99097.59;2609567;36;20161;-70
2021/12/08 01:31:44;;;;;;;20.98;13.65;;;;;;;4.21;100.00;99093.66;2610687;31;20030;-70
2021/12/08 01:34:15;;;;;;;19.00;12.20;;;;;;;4.27;100.00;99092.25;2609565;36;20034;-72
2021/12/08 01:36:44;;;;;;;15.25;10.32;;;;;;;4.28;100.00;99094.78;2610669;36;20031;-71
2021/12/08 01:39:13;;;;;;;17.20;12.38;;;;;;;4.27;100.00;99114.41;2627602;36;20121;-71
2021/12/08 01:41:45;;;;;;;25.17;13.52;;;;;;;4.36;100.00;99116.22;2608274;36;20042;-71
2021/12/08 01:46:58;;;;;;;25.55;13.68;;;;;;;4.44;100.00;99109.38;2610322;36;20057;-71
2021/12/08 01:49:27;;;;;;;23.40;13.60;;;;;;;4.50;100.00;99119.47;2610121;36;20161;-72
2021/12/08 01:51:57;;;;;;;28.75;14.18;;;;;;;4.44;100.00;99114.69;2628528;36;20075;-72
2021/12/08 01:54:32;;;;;;;20.05;12.00;;;;;;;4.48;100.00;99118.78;2609558;36;20057;-71
2021/12/08 01:57:01;;;;;;;22.58;13.63;;;;;;;4.47;100.00;99120.56;2609768;36;20034;-72
2021/12/08 01:59:32;;;;;;;24.50;14.18;;;;;;;4.52;100.00;99118.34;2609157;36;20031;-72
2021/12/08 02:02:13;;;;;;;25.48;14.38;;;;;;;4.52;100.00;99123.69;2611152;31;20056;-72
2021/12/08 02:04:41;;;;;;;25.55;14.25;;;;;;;4.57;100.00;99113.44;2609463;31;20768;-72
2021/12/08 02:07:10;;;;;;;26.67;14.83;;;;;;;4.64;100.00;99120.84;2609040;36;20034;-72
2021/12/08 02:09:43;;;;;;;21.88;13.85;;;;;;;4.66;100.00;99102.91;2627235;36;20065;-72
2021/12/08 02:12:13;;;;;;;26.85;16.65;;;;;;;4.64;100.00;99115.53;2610749;31;20439;-71
2021/12/08 02:14:50;;;;;;;30.50;14.77;;;;;;;4.70;100.00;99122.97;2609976;36;20065;-72
2021/12/08 02:17:18;;;;;;;21.83;13.02;;;;;;;4.73;100.00;99109.38;2609943;36;20030;-71
2021/12/08 02:19:47;;;;;;;20.25;12.82;;;;;;;4.74;100.00;99116.34;2609969;36;20153;-71
2021/12/08 02:22:18;;;;;;;20.75;12.55;;;;;;;4.87;100.00;99122.25;2609988;31;20089;-72
2021/12/08 02:24:46;;;;;;;16.73;12.05;;;;;;;4.79;100.00;99129.28;2609671;36;20715;-71
2021/12/08 02:27:15;;;;;;;21.95;12.20;;;;;;;4.83;100.00;99130.66;2609940;36;20084;-72
2021/12/08 02:29:49;;;;;;;17.27;10.15;;;;;;;4.90;100.00;99126.44;2610820;31;20514;-71
2021/12/08 02:46:34;;;;;;;15.77;10.60;;;;;;;4.91;100.00;99126.28;2610511;36;20030;-71
2021/12/08 02:48:29;;;;;;;16.50;10.85;;;;;;;4.95;100.00;99132.19;2613064;36;20048;-72
2021/12/08 02:50:59;;;;;;;16.45;11.07;;;;;;;5.00;100.00;99121.94;2613272;36;20397;-72
2021/12/08 02:53:30;;;;;;;;;;;;;;;5.03;100.00;99134.97;2611117;31;20603;-72
2021/12/08 02:55:59;;;;;;;16.88;10.93;;;;;;;5.07;100.00;99127.56;2608517;36;19954;-73
2021/12/08 02:58:28;;;;;;;15.10;10.98;;;;;;;5.09;100.00;99130.91;2610026;36;20035;-72
2021/12/08 03:01:00;;;;;;;15.85;11.13;;;;;;;5.02;100.00;99143.13;2610178;31;20630;-72
2021/12/08 03:03:29;;;;;;;18.35;11.25;;;;;;;5.12;100.00;99138.63;2609258;36;20824;-73
2021/12/08 03:05:57;;;;;;;18.37;10.40;;;;;;;5.06;100.00;99141.84;2608980;36;20069;-73
2021/12/08 03:08:26;;;;;;;17.20;10.02;;;;;;;5.05;100.00;99138.38;2609216;36;20069;-72
2021/12/08 03:11:00;;;;;;;15.65;9.70;;;;;;;5.09;100.00;99138.91;2608981;36;20050;-73
2021/12/08 03:13:33;;;;;;;14.05;9.07;;;;;;;5.09;100.00;99137.09;2608487;36;20034;-72
2021/12/08 03:16:02;;;;;;;15.45;10.10;;;;;;;5.10;100.00;99132.59;2608032;36;20069;-72
2021/12/08 03:18:33;;;;;;;14.70;8.88;;;;;;;5.15;100.00;99137.50;2608825;36;20049;-72
2021/12/08 03:21:08;;;;;;;16.63;9.60;;;;;;;5.04;100.00;99141.19;2607465;36;20042;-73
2021/12/08 03:23:48;;;;;;;18.20;9.48;;;;;;;5.08;100.00;99135.41;2607867;31;20042;-73
2021/12/08 03:26:27;;;;;;;15.20;9.00;;;;;;;5.08;100.00;99143.41;2610000;31;20030;-72
2021/12/08 03:29:04;;;;;;;14.57;9.00;;;;;;;5.14;100.00;99160.66;2608069;36;20056;-72
2021/12/08 03:31:40;;;;;;;16.95;9.52;;;;;;;5.14;100.00;99155.34;2610697;36;20038;-72
2021/12/08 03:34:08;;;;;;;14.68;9.38;;;;;;;5.15;100.00;99154.31;2612085;36;20415;-73
2021/12/08 03:36:36;;;;;;;14.25;9.98;;;;;;;5.15;100.00;99148.16;2610897;36;20519;-72
2021/12/08 03:39:08;;;;;;;12.82;9.98;;;;;;;5.16;100.00;99158.69;2609578;36;20122;-72
2021/12/08 03:41:38;;;;;;;16.25;9.45;;;;;;;5.13;100.00;99158.97;2610947;36;20035;-73
2021/12/08 03:44:08;;;;;;;17.27;9.98;;;;;;;5.07;100.00;99162.22;2609912;36;20209;-72
2021/12/08 03:46:40;;;;;;;;;;;;;;;5.09;100.00;99165.56;2611592;36;20030;-73
2021/12/08 03:49:11;;;;;;;14.32;8.90;;;;;;;5.01;100.00;99165.47;2610383;31;20412;-71
2021/12/08 03:51:43;;;;;;;13.25;8.85;;;;;;;4.90;100.00;99161.09;2610830;31;20035;-71
2021/12/08 03:54:11;;;;;;;15.70;8.73;;;;;;;4.90;100.00;99166.44;2609457;36;20042;-71
2021/12/08 03:56:43;;;;;;;16.48;8.90;;;;;;;4.95;100.00;99174.00;2611042;36;20450;-71
2021/12/08 03:59:12;;;;;;;15.13;8.90;;;;;;;4.87;100.00;99178.25;2609673;36;20030;-72
2021/12/08 04:01:40;;;;;;;14.77;8.98;;;;;;;4.86;100.00;99173.88;2611105;31;20068;-72
2021/12/08 04:04:10;;;;;;;19.30;8.77;;;;;;;4.94;100.00;99185.66;2626602;36;20177;-72
2021/12/08 04:06:47;;;;;;;13.82;8.13;;;;;;;4.96;100.00;99189.03;2611052;36;20054;-72
2021/12/08 04:09:19;;;;;;;16.33;8.20;;;;;;;4.98;100.00;99187.06;2609633;36;20061;-72
2021/12/08 04:11:51;;;;;;;11.73;7.80;;;;;;;5.00;100.00;99183.25;2611388;31;20034;-71
2021/12/08 04:14:22;;;;;;;13.85;7.55;;;;;;;5.03;100.00;99190.16;2610273;36;20038;-72
2021/12/08 04:16:55;;;;;;;14.73;7.57;;;;;;;5.03;100.00;99192.81;2610818;36;20050;-71
2021/12/08 04:22:06;;;;;;;;;;;;;;;5.06;100.00;99195.19;2610713;54;20035;-71
2021/12/08 04:24:34;;;;;;;11.52;7.20;;;;;;;5.16;100.00;99201.34;2628602;36;19953;-73
2021/12/08 04:27:09;;;;;;;15.20;7.28;;;;;;;5.21;100.00;99193.78;2610417;36;20053;-73
2021/12/08 04:29:42;;;;;;;10.75;6.47;;;;;;;5.17;100.00;99204.88;2610459;36;20142;-73
2021/12/08 04:32:13;;;;;;;10.23;6.18;;;;;;;5.19;100.00;99206.41;2610453;36;20146;-72
2021/12/08 04:34:43;;;;;;;12.93;7.03;;;;;;;5.13;100.00;99214.16;2610735;36;20034;-73
2021/12/08 04:37:21;;;;;;;9.60;6.65;;;;;;;5.19;100.00;99217.06;2609744;36;20034;-73
2021/12/08 04:40:01;;;;;;;17.05;6.30;;;;;;;5.24;100.00;99220.16;2611195;36;20442;-73
2021/12/08 04:42:51;;;;;;;12.73;6.55;;;;;;;5.24;100.00;99220.16;2609919;36;20069;-73
2021/12/08 04:45:27;;;;;;;12.10;6.40;;;;;;;5.24;100.00;99217.50;2610945;31;20030;-74
2021/12/08 04:48:13;;;;;;;16.58;7.13;;;;;;;5.25;100.00;99216.50;2610890;36;20042;-73
2021/12/08 04:53:41;;;;;;;10.60;5.68;;;;;;;5.36;100.00;99226.19;2610446;36;20439;-74
2021/12/08 05:02:02;;;;;;;11.35;5.38;;;;;;;5.32;100.00;99214.13;2610185;36;20035;-74
2021/12/08 05:04:44;;;;;;;12.68;4.40;;;;;;;5.33;100.00;99218.47;2610302;36;20038;-71
2021/12/08 05:07:31;;;;;;;8.02;4.53;;;;;;;5.35;100.00;99211.16;2610705;36;20141;-71
2021/12/08 05:10:03;;;;;;;8.68;4.65;;;;;;;5.35;100.00;99200.50;2610129;31;20630;-71
2021/12/08 05:12:33;;;;;;;9.35;4.60;;;;;;;5.38;100.00;99202.88;2609358;36;20046;-73
2021/12/08 05:15:10;;;;;;;14.38;4.57;;;;;;;5.37;100.00;99214.50;2610234;31;20512;-73
2021/12/08 05:17:43;;;;;;;7.82;4.15;;;;;;;5.42;100.00;99227.44;2609571;36;20657;-73
2021/12/08 05:20:18;;;;;;;13.38;4.90;;;;;;;5.38;100.00;99220.72;2612119;36;20041;-73
2021/12/08 05:22:51;;;;;;;9.32;4.30;;;;;;;5.36;100.00;99217.31;2610138;36;20566;-72
2021/12/08 05:25:24;;;;;;;10.63;4.20;;;;;;;5.34;100.00;99224.63;2610385;36;20045;-74
2021/12/08 05:27:57;;;;;;;14.35;4.72;;;;;;;5.35;100.00;99231.66;2609610;36;20031;-73
2021/12/08 05:30:34;;;;;;;8.75;4.30;;;;;;;5.25;100.00;99221.84;2610007;36;20038;-72
2021/12/08 05:33:06;;;;;;;11.07;4.03;;;;;;;5.33;100.00;99233.63;2610530;36;20056;-73
2021/12/08 05:35:36;;;;;;;6.40;3.47;;;;;;;5.28;100.00;99234.06;2609386;36;20047;-73
2021/12/08 05:38:05;;;;;;;10.52;3.70;;;;;;;5.31;100.00;99240.94;2610247;36;20570;-72
2021/12/08 05:40:37;;;;;;;10.48;3.83;;;;;;;5.36;100.00;99244.88;2609286;31;20489;-73
2021/12/08 05:43:07;;;;;;;12.68;3.40;;;;;;;5.30;100.00;99233.91;2609046;36;20141;-73
2021/12/08 05:45:38;;;;;;;;;;;;;;;5.22;100.00;99224.78;2610104;36;20184;-72
2021/12/08 05:48:07;;;;;;;8.77;3.35;;;;;;;5.10;100.00;99239.25;2610375;36;19974;-71
2021/12/08 05:50:39;;;;;;;9.45;3.10;;;;;;;5.06;100.00;99244.06;2610575;36;20039;-73
2021/12/08 05:53:08;;;;;;;9.25;3.85;;;;;;;5.03;100.00;99235.47;2610154;36;20049;-72
2021/12/08 05:55:38;;;;;;;8.57;3.20;;;;;;;5.07;100.00;99244.88;2610181;36;20038;-73
2021/12/08 05:58:10;;;;;;;5.82;3.03;;;;;;;5.02;100.00;99244.44;2609898;36;20035;-73
2021/12/08 06:00:45;;;;;;;7.97;3.28;;;;;;;4.99;100.00;99247.41;2610533;31;20518;-74
2021/12/08 06:03:16;;;;;;;7.97;3.13;;;;;;;4.94;100.00;99255.00;2610327;36;20065;-73
2021/12/08 06:05:46;;;;;;;8.15;2.78;;;;;;;4.91;100.00;99256.94;2609960;36;20174;-73
2021/12/08 06:08:15;;;;;;;9.40;2.88;;;;;;;4.78;100.00;99256.34;2609262;36;20072;-73
2021/12/08 06:10:44;;;;;;;7.25;3.10;;;;;;;4.75;100.00;99267.31;2610122;36;20069;-73
2021/12/08 06:13:14;;;;;;;;;;;;;;;4.71;100.00;99266.75;2628302;36;20046;-72
2021/12/08 06:15:59;;;;;;;12.85;3.50;;;;;;;4.67;100.00;99275.16;2608974;31;19954;-72
2021/12/08 06:18:28;;;;;;;9.13;3.35;;;;;;;4.62;100.00;99277.38;2628327;36;20034;-74
2021/12/08 06:20:59;;;;;;;10.03;3.40;;;;;;;4.63;100.00;99287.06;2607930;36;20031;-71
2021/12/08 06:23:30;;;;;;;6.93;3.03;;;;;;;4.53;100.00;99284.38;2608750;36;20312;-74
2021/12/08 06:25:58;;;;;;;8.95;3.55;;;;;;;4.44;100.00;99278.03;2609516;36;20470;-74
2021/12/08 06:28:27;;;;;;;8.70;3.40;;;;;;;4.45;100.00;99286.88;2608130;31;20079;-73
2021/12/08 06:30:59;;;;;;;7.63;3.13;;;;;;;4.37;100.00;99290.19;2608215;36;20154;-73
2021/12/08 06:33:31;;;;;;;11.00;3.13;;;;;;;4.39;100.00;99288.25;2609690;36;20561;-73
2021/12/08 06:36:03;;;;;;;6.35;2.97;;;;;;;4.36;100.00;99297.38;2609401;36;20034;-74
2021/12/08 06:41:36;;;;;;;14.15;3.38;;;;;;;4.34;100.00;99307.31;2608854;36;20145;-74
2021/12/08 06:44:12;;;;;;;7.35;2.67;;;;;;;4.26;100.00;99307.13;2607967;36;20038;-73
2021/12/08 06:46:46;;;;;;;13.45;3.03;;;;;;;4.29;100.00;99319.34;2610250;36;20471;-73
2021/12/08 06:53:04;;;;;;;10.80;2.65;;;;;;;4.24;100.00;99332.22;2609513;36;20130;-74
2021/12/08 07:01:19;;;;;;;9.70;2.75;;;;;;;4.26;100.00;99346.25;2609163;36;20654;-74
2021/12/08 07:04:12;;;;;;;9.85;2.33;;;;;;;4.25;100.00;99336.56;2610412;36;20038;-73
2021/12/08 07:11:48;;;;;;;10.10;2.38;;;;;;;4.10;100.00;99334.25;2609985;54;20133;-73
2021/12/08 07:14:22;;;;;;;8.77;2.10;;;;;;;3.99;100.00;99326.31;2608883;36;20089;-74
2021/12/08 07:17:22;;;;;;;8.50;2.10;;;;;;;4.02;100.00;99334.09;2606786;36;20141;-74
2021/12/08 07:20:34;;;;;;;7.68;2.40;;;;;;;4.01;100.00;99337.72;2607830;36;20076;-75
2021/12/08 07:23:22;;;;;;;10.70;2.28;;;;;;;4.04;100.00;99340.09;2624757;36;20608;-74
2021/12/08 07:29:30;;;;;;;6.57;2.08;;;;;;;3.91;100.00;99344.78;2605734;39;20489;-73
2021/12/08 07:32:26;;;;;;;8.30;2.30;;;;;;;3.85;100.00;99354.97;2604005;36;20434;-74
2021/12/08 07:40:29;;;;;;;9.85;2.50;;;;;;;3.78;100.00;99364.44;2607149;36;20796;-73
2021/12/08 07:43:30;;;;;;;7.00;2.63;;;;;;;3.81;100.00;99364.22;2606791;36;20050;-72
2021/12/08 07:46:07;;;;;;;9.45;2.90;;;;;;;3.76;100.00;99377.06;2608861;36;20168;-74
2021/12/08 07:54:35;;;;;;;7.60;2.70;;;;;;;3.83;100.00;99386.22;2625096;36;20022;-72
2021/12/08 07:57:10;;;;;;;11.60;2.72;;;;;;;3.82;100.00;99371.19;2608489;36;20058;-73
2021/12/08 07:59:44;;;;;;;9.18;2.65;;;;;;;3.89;100.00;99376.88;2609231;36;20061;-74
2021/12/08 08:02:13;;;;;;;4.28;2.40;;;;;;;3.90;100.00;99375.91;2610564;36;20818;-74
2021/12/08 08:04:47;;;;;;;13.77;3.05;;;;;;;3.81;100.00;99382.84;2608409;36;20181;-74
2021/12/08 08:07:17;;;;;;;8.57;1.98;;;;;;;3.83;100.00;99388.88;2608753;36;20157;-73
2021/12/08 08:09:58;;;;;;;11.27;2.67;;;;;;;3.77;100.00;99386.72;2609755;36;20031;-72
2021/12/08 08:12:33;;;;;;;6.20;2.15;;;;;;;3.85;100.00;99384.25;2607869;36;20913;-74
2021/12/08 08:15:07;;;;;;;12.18;2.42;;;;;;;3.86;100.00;99388.59;2608615;36;20126;-74
2021/12/08 08:17:42;;;;;;;7.95;2.55;;;;;;;3.90;100.00;99399.00;2610305;36;20153;-72
2021/12/08 08:20:15;;;;;;;9.25;2.53;;;;;;;3.78;100.00;99391.06;2610750;36;20057;-74
2021/12/08 08:22:46;;;;;;;13.02;3.38;;;;;;;3.84;100.00;99395.03;2610055;36;20129;-72
2021/12/08 08:25:19;;;;;;;14.70;3.00;;;;;;;3.81;100.00;99384.63;2610260;36;20138;-72
2021/12/08 08:27:50;;;;;;;8.75;2.45;;;;;;;3.74;100.00;99388.78;2610537;36;20046;-73
2021/12/08 08:30:23;;;;;;;7.85;2.80;;;;;;;3.76;100.00;99376.22;2610491;36;20038;-73
2021/12/08 08:32:55;;;;;;;8.90;2.90;;;;;;;3.82;100.00;99384.50;2610563;36;20042;-73
2021/12/08 08:35:29;;;;;;;12.02;2.90;;;;;;;3.74;100.00;99392.31;2609993;36;20057;-74
2021/12/08 08:37:58;;;;;;;9.88;3.10;;;;;;;3.84;100.00;99381.72;2609916;36;20038;-74
2021/12/08 08:40:34;;;;;;;12.25;2.90;;;;;;;3.89;100.00;99376.88;2609416;36;20130;-74
2021/12/08 08:43:07;;;;;;;12.40;3.35;;;;;;;3.82;100.00;99381.84;2607968;36;20652;-74
2021/12/08 08:45:41;;;;;;;7.68;2.65;;;;;;;3.80;100.00;99381.16;2609823;36;20035;-73
2021/12/08 08:48:13;;;;;;;14.80;2.83;;;;;;;3.86;100.00;99377.97;2610126;31;20616;-72
2021/12/08 08:50:48;;;;;;;8.02;2.53;;;;;;;3.89;100.00;99386.66;2610512;36;20883;-73
2021/12/08 08:53:17;;;;;;;7.25;2.70;;;;;;;3.90;100.00;99393.66;2610508;36;20122;-74
2021/12/08 08:55:49;;;;;;;10.55;2.70;;;;;;;3.98;100.00;99396.53;2608376;36;20511;-74
2021/12/08 08:58:21;;;;;;;9.73;3.13;;;;;;;4.02;100.00;99403.31;2609136;36;20034;-74
2021/12/08 09:01:06;;;;;;;8.82;3.03;;;;;;;4.02;100.00;99397.97;2610897;31;20161;-74
2021/12/08 09:03:44;;;;;;;11.90;2.60;;;;;;;4.21;100.00;99406.06;2608236;31;20102;-73
2021/12/08 09:06:17;;;;;;;14.25;3.38;;;;;;;4.15;100.00;99403.94;2610107;36;20030;-73
2021/12/08 09:08:46;;;;;;;8.70;2.72;;;;;;;4.17;100.00;99412.63;2609984;36;20529;-73
2021/12/08 09:11:21;;;;;;;7.68;2.72;;;;;;;4.16;100.00;99418.91;2610394;36;20178;-72
2021/12/08 09:13:54;;;;;;;9.27;2.50;;;;;;;4.17;100.00;99417.97;2608693;36;20069;-72
2021/12/08 09:16:31;;;;;;;16.50;3.58;;;;;;;4.21;100.00;99419.38;2611095;31;20057;-73
2021/12/08 09:19:05;;;;;;;10.02;2.65;;;;;;;4.21;100.00;99432.72;2609390;36;20069;-72
2021/12/08 09:21:42;;;;;;;8.05;2.42;;;;;;;4.25;100.00;99425.28;2608092;36;20035;-74
2021/12/08 09:24:23;;;;;;;7.88;2.20;;;;;;;4.25;100.00;99435.09;2625622;36;20030;-73
2021/12/08 09:26:54;;;;;;;11.10;2.83;;;;;;;4.28;100.00;99448.16;2610009;36;20034;-73
2021/12/08 09:29:45;;;;;;;8.65;2.55;;;;;;;4.20;100.00;99459.47;2625562;36;20126;-73
2021/12/08 09:32:20;;;;;;;8.65;2.83;;;;;;;4.34;100.00;99455.63;2626919;36;20042;-74
2021/12/08 09:34:56;;;;;;;12.88;2.58;;;;;;;4.38;100.00;99443.75;2610683;36;20038;-74
2021/12/08 09:37:35;;;;;;;9.52;2.47;;;;;;;4.44;100.00;99445.03;2608362;36;20034;-73
2021/12/08 09:50:56;;;;;;;8.95;2.40;;;;;;;4.56;100.00;99439.50;2641818;36;20034;-73
2021/12/08 10:29:37;;;;;;;7.38;2.33;;;;;;;5.07;100.00;99435.06;2609655;36;20038;-72
2021/12/08 10:32:16;;;;;;;7.35;2.70;;;;;;;5.12;100.00;99439.16;2627641;36;20030;-72
2021/12/08 10:35:05;;;;;;;7.25;2.17;;;;;;;5.17;100.00;99437.75;2610392;36;20190;-72
2021/12/08 10:37:36;;;;;;;10.15;2.17;;;;;;;5.15;100.00;99434.38;2608975;36;20042;-72
2021/12/08 10:40:11;;;;;;;6.40;2.08;;;;;;;5.24;100.00;99438.91;2607537;36;20061;-72
2021/12/08 10:42:39;;;;;;;11.68;2.10;;;;;;;5.37;100.00;99438.63;2625689;36;20072;-72
2021/12/08 10:45:21;;;;;;;11.02;2.40;;;;;;;5.47;100.00;99437.81;2609359;36;20077;-72
2021/12/08 10:48:00;;;;;;;6.15;2.15;;;;;;;5.46;100.00;99444.97;2608887;36;20542;-72
2021/12/08 10:55:56;;;;;;;7.63;2.40;;;;;;;5.63;100.00;99440.78;2609953;36;20034;-73
2021/12/08 10:58:26;;;;;;;8.93;2.28;;;;;;;5.63;100.00;99443.44;2610213;36;20656;-72
2021/12/08 11:00:59;;;;;;;7.13;2.13;;;;;;;5.42;100.00;99441.75;2609915;36;20054;-72
2021/12/08 11:03:35;;;;;;;10.30;2.58;;;;;;;5.46;100.00;99430.78;2610297;36;20546;-71
2021/12/08 11:06:05;;;;;;;5.85;2.42;;;;;;;5.43;100.00;99438.09;2610238;36;20568;-72
2021/12/08 11:08:34;;;;;;;;;;;;;;;5.44;100.00;99433.59;2610531;36;20542;-72
2021/12/08 11:11:07;;;;;;;5.20;1.95;;;;;;;5.41;100.00;99444.53;2609926;36;19950;-73
2021/12/08 11:13:39;;;;;;;7.28;1.98;;;;;;;5.46;100.00;99444.97;2607243;31;20038;-73
2021/12/08 11:16:17;;;;;;;6.05;1.98;;;;;;;5.57;100.00;99442.19;2607126;36;20622;-73
2021/12/08 11:18:47;;;;;;;6.70;2.25;;;;;;;5.54;100.00;99445.13;2609142;36;20069;-74
2021/12/08 11:21:24;;;;;;;5.05;2.10;;;;;;;5.59;100.00;99442.91;2608954;36;20042;-71
2021/12/08 11:23:53;;;;;;;6.47;2.17;;;;;;;5.59;100.00;99442.03;2606431;36;20133;-73
2021/12/08 11:26:27;;;;;;;5.93;2.33;;;;;;;5.64;100.00;99444.28;2607244;36;20038;-73
2021/12/08 11:29:07;;;;;;;6.28;2.30;;;;;;;5.60;100.00;99449.06;2608930;36;20035;-73
2021/12/08 11:31:53;;;;;;;7.07;2.20;;;;;;;5.71;100.00;99461.44;2607589;36;20137;-74
2021/12/08 11:34:24;;;;;;;6.28;2.80;;;;;;;5.69;100.00;99458.06;2609447;36;20551;-74
2021/12/08 11:36:58;;;;;;;5.65;2.65;;;;;;;5.85;100.00;99479.72;2608110;31;20048;-72
2021/12/08 11:39:30;;;;;;;5.55;2.30;;;;;;;5.83;100.00;99488.84;2627955;36;20046;-72
2021/12/08 11:42:10;;;;;;;7.78;2.60;;;;;;;5.93;100.00;99493.22;2609408;36;20454;-75
2021/12/08 11:44:43;;;;;;;8.52;2.72;;;;;;;5.79;100.00;99501.63;2610079;31;20031;-72
2021/12/08 11:47:27;;;;;;;7.60;2.60;;;;;;;5.84;100.00;99511.91;2609178;31;20138;-73
2021/12/08 11:50:01;;;;;;;7.95;2.58;;;;;;;5.72;100.00;99497.84;2609213;36;20166;-72
2021/12/08 11:58:21;;;;;;;5.97;2.50;;;;;;;5.92;100.00;99517.41;2628068;36;20050;-73
2021/12/08 12:00:52;;;;;;;8.27;2.45;;;;;;;6.09;100.00;99515.88;2627008;36;20069;-73
2021/12/08 12:03:25;;;;;;;7.72;2.53;;;;;;;6.03;100.00;99519.94;2607848;36;20106;-73
2021/12/08 12:05:53;;;;;;;4.82;1.92;;;;;;;5.84;100.00;99520.75;2608310;36;20035;-73
2021/12/08 12:08:48;;;;;;;6.90;2.40;;;;;;;5.70;100.00;99524.66;2608985;36;20142;-73
2021/12/08 12:11:31;;;;;;;6.72;2.35;;;;;;;5.60;100.00;99532.66;2623302;36;20038;-73
2021/12/08 12:14:28;;;;;;;4.85;1.90;;;;;;;5.59;100.00;99546.13;2608174;36;20619;-73
2021/12/08 12:17:01;;;;;;;5.18;2.60;;;;;;;5.63;100.00;99546.72;2627544;36;20555;-72
2021/12/08 12:19:47;;;;;;;8.68;2.40;;;;;;;5.52;100.00;99542.31;2610588;36;20030;-73
2021/12/08 12:22:44;;;;;;;5.60;1.98;;;;;;;5.67;100.00;99542.78;2608203;36;20047;-73
2021/12/08 12:25:32;;;;;;;7.78;2.40;;;;;;;5.73;100.00;99534.25;2626287;36;20455;-73
2021/12/08 12:28:51;;;;;;;5.57;2.30;;;;;;;5.74;100.00;99534.09;2609184;31;20039;-72
2021/12/08 12:31:41;;;;;;;7.80;2.28;;;;;;;5.87;100.00;99535.66;2625809;36;20395;-73
2021/12/08 12:34:35;;;;;;;5.50;2.25;;;;;;;5.80;100.00;99530.03;2608078;31;20056;-73
2021/12/08 12:37:35;;;;;;;8.93;2.65;;;;;;;5.74;100.00;99531.44;2607973;36;20035;-72
2021/12/08 12:40:25;;;;;;;5.60;2.13;;;;;;;5.75;100.00;99540.28;2608720;36;20419;-79
2021/12/08 12:43:21;;;;;;;;;;;;;;;5.74;100.00;99542.09;2627409;36;20104;-74
2021/12/08 12:46:08;;;;;;;5.18;2.00;;;;;;;5.77;100.00;99539.16;2624360;31;19947;-78
2021/12/08 12:48:40;;;;;;;7.53;2.80;;;;;;;5.73;100.00;99545.75;2609972;36;20305;-73
2021/12/08 12:58:02;;;;;;;9.20;2.63;;;;;;;5.82;100.00;99565.44;2608895;36;20033;-73
2021/12/08 13:01:09;;;;;;;5.93;2.13;;;;;;;5.92;100.00;99570.81;2610348;31;20069;-74
2021/12/08 13:03:57;;;;;;;6.20;2.38;;;;;;;6.01;100.00;99574.47;2608802;36;20045;-79
2021/12/08 13:10:08;;;;;;;7.70;2.75;;;;;;;6.07;100.00;99568.59;2609939;36;20022;-73
2021/12/08 13:15:48;;;;;;;9.25;3.17;;;;;;;5.91;100.00;99575.28;2610289;31;20027;-72
2021/12/08 13:21:22;;;;;;;8.38;3.47;;;;;;;5.93;100.00;99573.34;2607777;36;20046;-73
2021/12/08 13:23:53;;;;;;;7.72;3.60;;;;;;;5.79;100.00;99577.22;2610049;36;20046;-74
2021/12/08 13:26:27;;;;;;;11.73;4.38;;;;;;;5.79;100.00;99571.06;2625199;36;20613;-80
2021/12/08 13:29:19;;;;;;;8.10;4.13;;;;;;;5.80;100.00;99578.09;2607112;36;20034;-73
2021/12/08 13:31:59;;;;;;;7.68;3.42;;;;;;;5.81;100.00;99584.28;2606553;36;20089;-80
2021/12/08 13:40:54;;;;;;;10.75;4.63;;;;;;;5.79;100.00;99584.41;2605906;31;20031;-81
2021/12/08 13:43:51;;;;;;;8.60;3.88;;;;;;;5.76;100.00;99580.19;2609001;36;20057;-74
2021/12/08 13:46:44;;;;;;;20.60;5.45;;;;;;;5.67;100.00;99585.47;2609466;36;20762;-72
2021/12/08 13:49:42;;;;;;;7.05;4.10;;;;;;;5.66;100.00;99586.47;2610439;31;20423;-73
2021/12/08 13:52:26;;;;;;;10.95;4.53;;;;;;;5.66;100.00;99589.16;2608889;36;20416;-80
2021/12/08 13:58:14;;;;;;;15.60;4.50;;;;;;;5.55;100.00;99593.63;2609344;36;20043;-72
2021/12/08 14:00:47;;;;;;;13.15;3.53;;;;;;;5.54;100.00;99583.91;2609478;36;20038;-74
2021/12/08 14:03:43;;;;;;;9.38;4.38;;;;;;;5.56;100.00;99597.13;2611285;36;20384;-72
2021/12/08 14:06:37;;;;;;;12.77;5.32;;;;;;;5.42;100.00;99607.19;2610243;36;20034;-72
2021/12/08 14:09:05;;;;;;;12.82;4.07;;;;;;;5.48;100.00;99610.28;2610097;36;20042;-80
2021/12/08 14:11:43;;;;;;;12.55;5.82;;;;;;;5.45;100.00;99619.41;2628082;36;20117;-72
2021/12/08 14:14:14;;;;;;;15.15;5.07;;;;;;;5.53;100.00;99629.41;2609945;36;20465;-74
2021/12/08 14:16:43;;;;;;;14.82;4.95;;;;;;;5.48;100.00;99621.81;2609418;36;20503;-72
2021/12/08 14:19:25;;;;;;;12.90;5.15;;;;;;;5.49;100.00;99628.84;2609936;36;20069;-80
2021/12/08 14:22:08;;;;;;;15.32;4.93;;;;;;;5.48;100.00;99647.63;2609561;36;20521;-73
2021/12/08 14:25:12;;;;;;;9.82;4.85;;;;;;;5.54;100.00;99647.97;2607049;36;20559;-73
2021/12/08 14:27:44;;;;;;;12.05;4.15;;;;;;;5.52;100.00;99657.94;2626795;36;20053;-73
2021/12/08 14:36:25;;;;;;;14.82;4.97;;;;;;;5.50;100.00;99662.53;2606426;36;20026;-80
2021/12/08 14:42:24;;;;;;;10.70;3.75;;;;;;;5.49;100.00;99658.22;2606475;36;20548;-73